Time;durP1;ratioP1;P1;durP2;ratioP2;P2;SDS_P1;SDS_P2;PMS_P1;PMS_P2;Temp;Humidity;BMP_temperature;BMP_pressure;BME280_temperature;BME280_humidity;BME280_pressure;Samples;Min_cycle;Max_cycle;Signal;HPM_P1;HPM_P2
2021/08/26 00:07:48;;;;;;;;;;;;;;;33.57;26.87;94258.09;4880842;29;19935;-68
2021/08/26 00:10:17;;;;;;;;;;;;;;;33.28;27.14;94257.44;4880361;29;19920;-62
2021/08/26 00:12:44;;;;;;;;;;;;;;;33.40;27.20;94254.00;4881025;29;19927;-64
2021/08/26 00:15:10;;;;;;;;;;;;;;;33.50;26.85;94258.31;4880325;29;19931;-68
2021/08/26 00:17:39;;;;;;;;;;;;;;;33.62;26.68;94251.38;4881023;29;19931;-69
2021/08/26 00:20:06;;;;;;;;;;;;;;;33.62;26.67;94244.00;4880033;29;19954;-67
2021/08/26 00:22:35;;;;;;;;;;;;;;;33.49;26.75;94254.09;4880795;29;19927;-69
2021/08/26 00:25:02;;;;;;;;;;;;;;;33.78;26.37;94247.75;4880411;29;19927;-67
2021/08/26 00:27:29;;;;;;;;;;;;;;;33.66;26.42;94247.34;4880514;29;19927;-69
2021/08/26 00:29:56;;;;;;;;;;;;;;;33.23;27.05;94252.56;4864830;29;19920;-67
2021/08/26 00:32:23;;;;;;;;;;;;;;;33.31;26.63;94243.84;4879295;29;20354;-69
2021/08/26 00:34:50;;;;;;;;;;;;;;;33.54;26.82;94245.41;4880647;29;19919;-69
2021/08/26 00:37:17;;;;;;;;;;;;;;;33.37;26.59;94244.78;4881085;29;19924;-69
2021/08/26 00:39:44;;;;;;;;;;;;;;;33.18;27.21;94242.28;4880270;29;19951;-67
2021/08/26 00:42:10;;;;;;;;;;;;;;;33.31;26.96;94232.19;4879734;29;19924;-67
2021/08/26 00:44:38;;;;;;;;;;;;;;;33.18;27.21;94239.56;4880588;29;19920;-67
2021/08/26 00:47:05;;;;;;;;;;;;;;;33.32;26.74;94239.19;4880954;29;20304;-69
2021/08/26 00:49:32;;;;;;;;;;;;;;;33.42;26.57;94238.81;4881127;29;19920;-68
2021/08/26 00:51:58;;;;;;;;;;;;;;;33.11;27.01;94245.97;4880360;29;20259;-68
2021/08/26 00:54:26;;;;;;;;;;;;;;;33.26;27.40;94240.88;4880877;29;19930;-66
2021/08/26 00:56:53;;;;;;;;;;;;;;;33.25;27.23;94255.59;4880951;29;19924;-68
2021/08/26 00:59:20;;;;;;;;;;;;;;;32.90;27.94;94241.19;4872064;29;19924;-68
2021/08/26 01:02:10;;;;;;;;;;;;;;;33.14;27.51;94249.75;4874333;29;19920;-67
2021/08/26 01:04:47;;;;;;;;;;;;;;;32.93;28.08;94238.38;4853080;29;19924;-65
2021/08/26 01:07:20;;;;;;;;;;;;;;;33.02;27.84;94237.72;4864217;29;19927;-67
2021/08/26 01:09:49;;;;;;;;;;;;;;;32.90;27.91;94236.53;4880512;29;19926;-66
2021/08/26 01:12:19;;;;;;;;;;;;;;;32.82;27.82;94237.97;4879922;29;19931;-66
2021/08/26 01:14:46;;;;;;;;;;;;;;;32.83;28.14;94236.75;4868323;29;19927;-67
2021/08/26 01:17:22;;;;;;;;;;;;;;;32.96;27.77;94223.97;4867838;29;19919;-68
2021/08/26 01:19:49;;;;;;;;;;;;;;;33.00;27.43;94215.75;4884083;29;19924;-69
2021/08/26 01:22:16;;;;;;;;;;;;;;;32.64;27.96;94229.56;4883840;29;19919;-65
2021/08/26 01:24:44;;;;;;;;;;;;;;;32.99;27.55;94217.69;4884066;29;19920;-69
2021/08/26 01:27:11;;;;;;;;;;;;;;;32.69;27.83;94215.50;4867698;29;19919;-68
2021/08/26 01:29:38;;;;;;;;;;;;;;;33.05;27.60;94226.81;4867591;29;19919;-69
2021/08/26 01:32:05;;;;;;;;;;;;;;;33.01;27.60;94226.16;4883129;29;19931;-63
2021/08/26 01:34:32;;;;;;;;;;;;;;;33.28;27.09;94216.81;4866709;29;19935;-68
2021/08/26 01:36:58;;;;;;;;;;;;;;;32.91;27.46;94224.53;4883293;29;19935;-68
2021/08/26 01:39:25;;;;;;;;;;;;;;;33.31;27.09;94226.78;4884205;29;19928;-63
2021/08/26 01:41:53;;;;;;;;;;;;;;;33.11;27.35;94225.06;4883756;29;19920;-62
2021/08/26 01:44:23;;;;;;;;;;;;;;;32.95;27.58;94227.13;4883617;29;19923;-67
2021/08/26 01:46:51;;;;;;;;;;;;;;;32.88;27.67;94230.06;4883010;29;19943;-69
2021/08/26 01:49:18;;;;;;;;;;;;;;;32.77;27.72;94224.91;4884112;29;19936;-69
2021/08/26 01:51:45;;;;;;;;;;;;;;;32.69;27.71;94242.56;4883206;29;19931;-69
2021/08/26 01:54:12;;;;;;;;;;;;;;;32.80;27.69;94221.41;4883830;29;20204;-68
2021/08/26 01:56:38;;;;;;;;;;;;;;;32.75;27.98;94230.00;4883653;29;19924;-62
2021/08/26 01:59:05;;;;;;;;;;;;;;;32.87;27.86;94223.88;4867447;29;19935;-67
2021/08/26 02:01:32;;;;;;;;;;;;;;;32.69;27.77;94226.31;4882837;29;19930;-67
2021/08/26 02:04:03;;;;;;;;;;;;;;;32.57;28.33;94235.19;4881793;29;19931;-69
2021/08/26 02:06:30;;;;;;;;;;;;;;;32.72;28.13;94230.88;4882918;29;19931;-65
2021/08/26 02:08:57;;;;;;;;;;;;;;;32.81;27.73;94233.72;4883422;29;19935;-69
2021/08/26 02:11:24;;;;;;;;;;;;;;;32.72;28.19;94238.97;4883127;29;19920;-69
2021/08/26 02:13:51;;;;;;;;;;;;;;;32.97;27.72;94220.09;4883026;29;19931;-69
2021/08/26 02:16:18;;;;;;;;;;;;;;;32.98;27.89;94221.59;4882785;29;20370;-67
2021/08/26 02:18:45;;;;;;;;;;;;;;;33.11;27.66;94219.66;4883195;29;19920;-64
2021/08/26 02:21:12;;;;;;;;;;;;;;;33.16;27.42;94214.88;4883146;29;19993;-67
2021/08/26 02:23:39;;;;;;;;;;;;;;;32.94;28.08;94210.13;4881311;29;19924;-65
2021/08/26 02:26:06;;;;;;;;;;;;;;;33.09;27.84;94196.91;4882358;29;19928;-66
2021/08/26 02:28:33;;;;;;;;;;;;;;;33.50;27.07;94193.28;4883047;29;19923;-66
2021/08/26 02:31:00;;;;;;;;;;;;;;;33.61;27.17;94193.69;4882607;29;19927;-68
2021/08/26 02:33:27;;;;;;;;;;;;;;;33.50;27.08;94201.41;4882047;29;19990;-64
2021/08/26 02:35:54;;;;;;;;;;;;;;;33.58;27.07;94200.00;4872405;29;19928;-68
2021/08/26 02:38:21;;;;;;;;;;;;;;;33.54;27.19;94204.00;4882008;29;19932;-66
2021/08/26 02:40:48;;;;;;;;;;;;;;;33.54;27.21;94210.19;4882743;29;19920;-66
2021/08/26 02:43:15;;;;;;;;;;;;;;;33.67;27.34;94205.50;4881367;29;19927;-69
2021/08/26 02:45:42;;;;;;;;;;;;;;;33.68;27.30;94203.53;4882356;29;19939;-68
2021/08/26 02:48:08;;;;;;;;;;;;;;;33.62;27.43;94208.78;4882619;29;19950;-69
2021/08/26 02:50:35;;;;;;;;;;;;;;;33.63;27.53;94210.28;4882583;29;19923;-66
2021/08/26 02:53:02;;;;;;;;;;;;;;;33.58;27.61;94213.56;4882308;29;20260;-68
2021/08/26 02:55:29;;;;;;;;;;;;;;;33.46;27.88;94203.50;4882244;29;19935;-66
2021/08/26 02:57:56;;;;;;;;;;;;;;;33.59;27.61;94204.22;4882615;29;19931;-67
2021/08/26 03:00:23;;;;;;;;;;;;;;;34.09;26.88;94215.34;4882331;29;19923;-68
2021/08/26 03:02:50;;;;;;;;;;;;;;;33.83;27.21;94214.66;4864704;29;19920;-68
2021/08/26 03:05:17;;;;;;;;;;;;;;;33.79;27.07;94212.06;4881541;29;19931;-66
2021/08/26 03:07:43;;;;;;;;;;;;;;;33.70;27.23;94215.47;4881821;29;19924;-66
2021/08/26 03:10:10;;;;;;;;;;;;;;;34.04;26.90;94211.22;4882558;29;20315;-68
2021/08/26 03:12:37;;;;;;;;;;;;;;;33.91;27.16;94208.59;4882261;29;19974;-67
2021/08/26 03:15:04;;;;;;;;;;;;;;;33.75;27.45;94202.53;4881623;29;19919;-68
2021/08/26 03:17:31;;;;;;;;;;;;;;;33.68;27.51;94203.53;4882148;29;19924;-68
2021/08/26 03:19:58;;;;;;;;;;;;;;;33.82;27.26;94205.00;4882577;29;19924;-67
2021/08/26 03:22:25;;;;;;;;;;;;;;;33.79;27.42;94203.16;4882194;29;19920;-69
2021/08/26 03:24:52;;;;;;;;;;;;;;;33.69;27.55;94194.97;4881180;29;19924;-63
2021/08/26 03:27:18;;;;;;;;;;;;;;;33.86;27.35;94205.69;4882120;29;19924;-65
2021/08/26 03:29:46;;;;;;;;;;;;;;;33.56;27.97;94205.06;4882301;29;19931;-66
2021/08/26 03:32:13;;;;;;;;;;;;;;;33.76;27.25;94195.91;4881161;29;19927;-68
2021/08/26 03:34:39;;;;;;;;;;;;;;;33.52;27.45;94204.44;4864352;29;19927;-61
2021/08/26 03:37:06;;;;;;;;;;;;;;;33.65;27.22;94207.13;4881560;29;19927;-65
2021/08/26 03:39:33;;;;;;;;;;;;;;;33.45;27.88;94193.09;4881293;29;19931;-66
2021/08/26 03:42:00;;;;;;;;;;;;;;;33.40;27.86;94191.69;4881908;29;19926;-66
2021/08/26 03:44:27;;;;;;;;;;;;;;;33.43;28.12;94201.66;4881917;29;19924;-62
2021/08/26 03:46:53;;;;;;;;;;;;;;;33.40;28.00;94197.13;4881494;29;19931;-62
2021/08/26 03:49:20;;;;;;;;;;;;;;;33.22;28.12;94196.88;4882039;29;20332;-68
2021/08/26 03:51:47;;;;;;;;;;;;;;;33.29;28.53;94191.25;4881736;29;20304;-62
2021/08/26 03:54:14;;;;;;;;;;;;;;;33.69;27.89;94194.97;4881655;29;20303;-68
2021/08/26 03:56:41;;;;;;;;;;;;;;;33.65;27.88;94191.63;4864520;29;19924;-60
2021/08/26 03:59:08;;;;;;;;;;;;;;;33.95;27.15;94194.91;4880850;29;19923;-66
2021/08/26 04:01:34;;;;;;;;;;;;;;;33.77;27.24;94197.44;4881772;29;20627;-68
2021/08/26 04:04:01;;;;;;;;;;;;;;;34.02;26.81;94197.34;4881088;29;19924;-66
2021/08/26 04:06:29;;;;;;;;;;;;;;;33.59;27.39;94193.38;4881064;29;19927;-66
2021/08/26 04:08:56;;;;;;;;;;;;;;;33.43;27.98;94185.41;4881429;29;19950;-62
2021/08/26 04:11:23;;;;;;;;;;;;;;;33.09;28.05;94191.50;4881791;29;19923;-60
2021/08/26 04:13:50;;;;;;;;;;;;;;;33.03;28.46;94198.63;4865381;29;19927;-62
2021/08/26 04:16:17;;;;;;;;;;;;;;;32.98;28.19;94199.19;4879463;29;19923;-48
2021/08/26 04:18:44;;;;;;;;;;;;;;;32.91;28.75;94202.88;4881389;29;19919;-56
2021/08/26 04:21:11;;;;;;;;;;;;;;;33.24;28.04;94200.69;4880363;29;19927;-66
2021/08/26 04:23:38;;;;;;;;;;;;;;;33.47;27.87;94196.88;4874367;29;19920;-57
2021/08/26 04:26:04;;;;;;;;;;;;;;;33.59;27.70;94208.88;4874675;29;19932;-56
2021/08/26 04:28:31;;;;;;;;;;;;;;;33.65;27.48;94205.19;4885271;29;20212;-57
2021/08/26 04:30:58;;;;;;;;;;;;;;;33.45;27.63;94199.25;4884475;29;19928;-56
2021/08/26 04:33:25;;;;;;;;;;;;;;;33.52;27.85;94211.81;4883630;29;19923;-51
2021/08/26 04:35:52;;;;;;;;;;;;;;;33.33;28.16;94213.59;4895825;29;19932;-58
2021/08/26 04:38:19;;;;;;;;;;;;;;;33.17;28.45;94216.41;4890710;29;19919;-46
2021/08/26 04:40:45;;;;;;;;;;;;;;;33.36;27.82;94210.03;4891241;29;19923;-65
2021/08/26 04:43:12;;;;;;;;;;;;;;;33.42;27.98;94202.84;4898818;29;19923;-61
2021/08/26 04:45:39;;;;;;;;;;;;;;;33.62;27.28;94197.94;4878583;29;20251;-69
2021/08/26 04:48:06;;;;;;;;;;;;;;;33.41;27.37;94195.91;4882410;29;19920;-68
2021/08/26 04:50:33;;;;;;;;;;;;;;;33.04;28.43;94195.50;4884957;29;19923;-69
2021/08/26 04:53:00;;;;;;;;;;;;;;;33.37;27.75;94193.31;4884267;29;20330;-68
2021/08/26 04:55:26;;;;;;;;;;;;;;;33.49;28.02;94193.72;4884460;29;19920;-68
2021/08/26 04:57:54;;;;;;;;;;;;;;;34.91;27.00;94189.50;4882784;29;19924;-71
2021/08/26 05:00:21;;;;;;;;;;;;;;;35.57;25.50;94183.78;4874079;29;19931;-63
2021/08/26 05:02:50;;;;;;;;;;;;;;;34.70;26.64;94187.56;4864571;29;19974;-64
2021/08/26 05:05:17;;;;;;;;;;;;;;;34.37;26.94;94183.78;4867409;29;19953;-64
2021/08/26 05:07:44;;;;;;;;;;;;;;;34.23;26.89;94188.47;4884001;29;19924;-68
2021/08/26 05:10:11;;;;;;;;;;;;;;;34.05;27.39;94174.78;4884038;29;19923;-65
2021/08/26 05:12:37;;;;;;;;;;;;;;;33.93;27.03;94194.59;4883960;29;19919;-67
2021/08/26 05:15:05;;;;;;;;;;;;;;;33.83;27.18;94188.34;4863903;29;20335;-68
2021/08/26 05:17:31;;;;;;;;;;;;;;;33.94;27.32;94193.41;4883095;29;19927;-67
2021/08/26 05:19:59;;;;;;;;;;;;;;;33.81;27.63;94198.06;4884294;29;19931;-68
2021/08/26 05:22:26;;;;;;;;;;;;;;;33.83;27.37;94201.09;4884038;29;19927;-67
2021/08/26 05:24:53;;;;;;;;;;;;;;;33.48;27.89;94203.06;4884151;29;19954;-67
2021/08/26 05:27:19;;;;;;;;;;;;;;;33.41;27.95;94195.91;4883782;29;19926;-68
2021/08/26 05:29:46;;;;;;;;;;;;;;;33.69;27.74;94191.50;4884037;29;19924;-68
2021/08/26 05:32:13;;;;;;;;;;;;;;;33.76;27.02;94185.06;4883557;29;19954;-68
2021/08/26 05:34:42;;;;;;;;;;;;;;;33.73;27.04;94201.03;4884043;29;19926;-67
2021/08/26 05:37:09;;;;;;;;;;;;;;;33.69;27.68;94183.38;4883488;29;19927;-65
2021/08/26 05:39:36;;;;;;;;;;;;;;;33.62;27.74;94170.84;4883971;29;19920;-68
2021/08/26 05:42:03;;;;;;;;;;;;;;;33.57;28.04;94152.44;4883668;29;19951;-69
2021/08/26 05:44:29;;;;;;;;;;;;;;;33.74;27.31;94150.28;4883770;29;19928;-69
2021/08/26 05:46:56;;;;;;;;;;;;;;;33.75;27.60;94140.19;4883256;29;19919;-67
2021/08/26 05:49:23;;;;;;;;;;;;;;;33.70;27.53;94139.56;4883882;29;19923;-64
2021/08/26 05:51:50;;;;;;;;;;;;;;;33.77;27.36;94137.81;4883686;29;19920;-66
2021/08/26 05:54:17;;;;;;;;;;;;;;;33.86;27.53;94152.22;4883547;29;19923;-63
2021/08/26 05:56:44;;;;;;;;;;;;;;;33.54;28.10;94153.28;4882463;29;19935;-67
2021/08/26 05:59:10;;;;;;;;;;;;;;;33.89;27.45;94162.19;4883272;29;20340;-69
2021/08/26 06:01:37;;;;;;;;;;;;;;;33.83;27.34;94177.50;4883450;29;19931;-66
2021/08/26 06:04:04;;;;;;;;;;;;;;;33.99;26.81;94171.13;4882864;29;19940;-66
2021/08/26 06:06:31;;;;;;;;;;;;;;;33.62;27.35;94170.84;4882323;29;19924;-68
2021/08/26 06:08:58;;;;;;;;;;;;;;;33.95;26.96;94167.78;4883627;29;19931;-67
2021/08/26 06:11:24;;;;;;;;;;;;;;;33.90;26.89;94171.06;4883447;29;19924;-65
2021/08/26 06:13:51;;;;;;;;;;;;;;;33.99;26.59;94182.72;4883221;29;19920;-67
2021/08/26 06:16:18;;;;;;;;;;;;;;;33.93;26.82;94194.59;4883095;29;19928;-68
2021/08/26 06:18:45;;;;;;;;;;;;;;;34.05;26.66;94193.75;4883472;29;19954;-69
2021/08/26 06:21:13;;;;;;;;;;;;;;;34.00;26.94;94186.19;4882410;29;19926;-66
2021/08/26 06:23:40;;;;;;;;;;;;;;;34.13;26.25;94186.91;4867123;29;19926;-69
2021/08/26 06:26:07;;;;;;;;;;;;;;;34.01;26.90;94201.28;4882981;29;19927;-67
2021/08/26 06:28:34;;;;;;;;;;;;;;;34.07;26.89;94177.81;4881821;29;20351;-68
2021/08/26 06:31:01;;;;;;;;;;;;;;;33.90;26.91;94162.94;4882978;29;20268;-67
2021/08/26 06:33:28;;;;;;;;;;;;;;;34.08;26.82;94176.59;4881796;29;19923;-69
2021/08/26 06:35:55;;;;;;;;;;;;;;;33.67;27.79;94167.56;4881910;29;20318;-67
2021/08/26 06:38:22;;;;;;;;;;;;;;;33.82;27.34;94154.25;4883127;29;19924;-69
2021/08/26 06:40:49;;;;;;;;;;;;;;;34.03;27.15;94155.50;4882761;29;19930;-67
2021/08/26 06:43:16;;;;;;;;;;;;;;;33.76;27.75;94149.84;4882606;29;19924;-69
2021/08/26 06:45:42;;;;;;;;;;;;;;;33.86;26.99;94151.47;4882444;29;19920;-67
2021/08/26 06:48:09;;;;;;;;;;;;;;;34.06;26.80;94164.69;4882935;29;19923;-69
2021/08/26 06:50:36;;;;;;;;;;;;;;;34.18;26.86;94177.44;4882122;29;19920;-69
2021/08/26 06:53:03;;;;;;;;;;;;;;;34.03;26.45;94177.19;4882916;29;19950;-70
2021/08/26 06:55:30;;;;;;;;;;;;;;;33.99;27.22;94165.72;4882699;29;20228;-68
2021/08/26 06:57:57;;;;;;;;;;;;;;;34.17;26.69;94155.00;4881854;29;19931;-66
2021/08/26 07:00:24;;;;;;;;;;;;;;;33.96;27.25;94153.03;4882307;29;19923;-68
2021/08/26 07:02:52;;;;;;;;;;;;;;;34.01;26.99;94155.19;4881921;29;19930;-68
2021/08/26 07:05:19;;;;;;;;;;;;;;;34.09;27.07;94172.69;4882081;29;19928;-68
2021/08/26 07:07:46;;;;;;;;;;;;;;;34.35;26.55;94180.72;4881516;29;19930;-67
2021/08/26 07:10:13;;;;;;;;;;;;;;;33.99;27.07;94168.41;4873650;29;20283;-69
2021/08/26 07:12:40;;;;;;;;;;;;;;;34.11;26.90;94177.72;4882297;29;19924;-68
2021/08/26 07:15:07;;;;;;;;;;;;;;;34.10;27.31;94187.78;4881527;29;19926;-69
2021/08/26 07:17:34;;;;;;;;;;;;;;;34.15;26.63;94176.38;4881015;29;19924;-68
2021/08/26 07:20:00;;;;;;;;;;;;;;;34.24;26.36;94187.28;4881990;29;19928;-68
2021/08/26 07:22:27;;;;;;;;;;;;;;;34.48;26.01;94165.88;4881872;29;19930;-64
2021/08/26 07:24:54;;;;;;;;;;;;;;;34.38;26.05;94158.16;4882182;29;19928;-69
2021/08/26 07:27:21;;;;;;;;;;;;;;;34.26;25.81;94168.59;4881913;29;20240;-68
2021/08/26 07:29:48;;;;;;;;;;;;;;;34.33;25.98;94162.91;4881741;29;19930;-67
2021/08/26 07:32:15;;;;;;;;;;;;;;;34.09;26.28;94175.41;4881336;29;19928;-69
2021/08/26 07:34:41;;;;;;;;;;;;;;;34.12;26.51;94177.25;4880879;29;19920;-68
2021/08/26 07:37:08;;;;;;;;;;;;;;;33.97;27.20;94179.72;4881198;29;19935;-67
2021/08/26 07:39:35;;;;;;;;;;;;;;;33.87;26.94;94185.50;4881592;29;19923;-65
2021/08/26 07:42:02;;;;;;;;;;;;;;;34.18;26.41;94172.78;4880979;29;20257;-68
2021/08/26 07:44:29;;;;;;;;;;;;;;;34.10;26.65;94182.38;4881045;29;19924;-65
2021/08/26 07:46:56;;;;;;;;;;;;;;;34.10;26.34;94176.19;4881263;29;19924;-66
2021/08/26 07:49:22;;;;;;;;;;;;;;;34.07;26.78;94166.97;4881774;29;20291;-68
2021/08/26 07:51:49;;;;;;;;;;;;;;;34.30;25.80;94161.09;4881258;29;20213;-68
2021/08/26 07:54:16;;;;;;;;;;;;;;;34.22;26.46;94167.22;4881255;29;19920;-69
2021/08/26 07:56:43;;;;;;;;;;;;;;;34.15;26.23;94179.09;4880821;29;19924;-69
2021/08/26 07:59:10;;;;;;;;;;;;;;;34.05;26.11;94185.63;4881502;29;19927;-60
2021/08/26 08:01:37;;;;;;;;;;;;;;;34.27;25.47;94174.78;4880351;29;19924;-63
2021/08/26 08:04:04;;;;;;;;;;;;;;;34.39;25.82;94170.53;4880209;29;19931;-68
2021/08/26 08:06:31;;;;;;;;;;;;;;;34.48;25.25;94157.00;4881374;29;19923;-69
2021/08/26 08:08:57;;;;;;;;;;;;;;;34.52;25.01;94149.47;4881470;29;19924;-61
2021/08/26 08:11:24;;;;;;;;;;;;;;;34.28;25.41;94149.16;4881252;29;19939;-68
2021/08/26 08:13:51;;;;;;;;;;;;;;;34.45;25.23;94152.47;4881646;29;19944;-69
2021/08/26 08:16:18;;;;;;;;;;;;;;;34.70;25.23;94140.66;4881212;29;19927;-68
2021/08/26 08:18:45;;;;;;;;;;;;;;;35.27;24.75;94138.41;4872637;29;19924;-66
2021/08/26 08:21:12;;;;;;;;;;;;;;;35.58;23.97;94146.47;4874431;29;19931;-67
2021/08/26 08:23:39;;;;;;;;;;;;;;;35.23;24.33;94154.88;4880968;29;19926;-69
2021/08/26 08:26:10;;;;;;;;;;;;;;;35.02;24.94;94156.47;4864844;29;19927;-70
2021/08/26 08:28:37;;;;;;;;;;;;;;;34.89;25.35;94153.88;4881571;29;19928;-66
2021/08/26 08:31:05;;;;;;;;;;;;;;;34.84;24.94;94153.69;4880222;29;19930;-68
2021/08/26 08:33:33;;;;;;;;;;;;;;;34.94;25.64;94149.81;4881020;29;20303;-69
2021/08/26 08:35:59;;;;;;;;;;;;;;;34.98;25.37;94152.41;4881155;29;19924;-69
2021/08/26 08:38:26;;;;;;;;;;;;;;;34.87;25.43;94156.28;4881251;29;19928;-68
2021/08/26 08:40:53;;;;;;;;;;;;;;;34.68;25.90;94149.25;4881084;29;19924;-69
2021/08/26 08:43:20;;;;;;;;;;;;;;;34.47;26.59;94158.19;4881366;29;19950;-68
2021/08/26 08:45:47;;;;;;;;;;;;;;;34.31;26.39;94170.72;4880162;29;19924;-66
2021/08/26 08:48:14;;;;;;;;;;;;;;;34.51;26.32;94166.94;4880979;29;19926;-68
2021/08/26 08:50:45;;;;;;;;;;;;;;;34.54;26.59;94171.50;4879383;29;20243;-69
2021/08/26 08:53:13;;;;;;;;;;;;;;;34.64;27.12;94173.06;4881401;29;20236;-69
2021/08/26 08:55:41;;;;;;;;;;;;;;;34.74;25.93;94158.31;4880282;29;19951;-66
2021/08/26 08:58:08;;;;;;;;;;;;;;;34.40;26.86;94167.38;4880399;29;19928;-66
2021/08/26 09:00:35;;;;;;;;;;;;;;;34.63;26.09;94172.31;4880203;29;19924;-68
2021/08/26 09:03:02;;;;;;;;;;;;;;;34.39;26.67;94171.28;4879965;29;19919;-68
2021/08/26 09:05:47;;;;;;;;;;;;;;;34.67;25.84;94172.16;4880110;29;19928;-63
2021/08/26 09:08:16;;;;;;;;;;;;;;;34.90;25.71;94163.53;4864363;29;20343;-69
2021/08/26 09:10:43;;;;;;;;;;;;;;;34.95;25.46;94167.63;4874046;29;19924;-67
2021/08/26 09:13:10;;;;;;;;;;;;;;;34.67;26.32;94174.88;4862321;29;19920;-66
2021/08/26 09:15:37;;;;;;;;;;;;;;;34.94;25.63;94171.53;4862256;29;20346;-68
2021/08/26 09:18:13;;;;;;;;;;;;;;;35.06;25.99;94167.19;4861094;29;19928;-70
2021/08/26 09:20:58;;;;;;;;;;;;;;;34.95;25.76;94167.63;4877589;29;20236;-67
2021/08/26 09:23:26;;;;;;;;;;;;;;;34.66;26.67;94153.63;4880711;29;19954;-68
2021/08/26 09:25:54;;;;;;;;;;;;;;;34.71;26.47;94156.50;4880790;29;19931;-68
2021/08/26 09:28:31;;;;;;;;;;;;;;;34.76;26.24;94166.00;4880550;29;19928;-69
2021/08/26 09:31:11;;;;;;;;;;;;;;;34.80;26.61;94170.09;4879462;29;19924;-67
2021/08/26 09:33:53;;;;;;;;;;;;;;;34.80;26.37;94161.94;4881021;29;19926;-66
2021/08/26 09:36:21;;;;;;;;;;;;;;;35.21;25.76;94173.59;4883993;29;19927;-68
2021/08/26 09:38:51;;;;;;;;;;;;;;;34.61;26.85;94171.22;4882781;29;19928;-64
2021/08/26 09:41:38;;;;;;;;;;;;;;;34.94;26.57;94166.13;4883548;29;19920;-66
2021/08/26 09:44:09;;;;;;;;;;;;;;;34.78;26.67;94183.38;4883611;29;19924;-68
2021/08/26 09:46:36;;;;;;;;;;;;;;;34.73;26.72;94181.22;4883871;29;19924;-69
2021/08/26 09:49:10;;;;;;;;;;;;;;;35.08;26.29;94186.50;4883534;29;19928;-69
2021/08/26 09:51:37;;;;;;;;;;;;;;;34.71;26.89;94180.16;4866829;29;19919;-68
2021/08/26 09:54:04;;;;;;;;;;;;;;;34.67;27.33;94180.31;4883522;29;19924;-68
2021/08/26 09:56:41;;;;;;;;;;;;;;;34.55;27.63;94184.59;4883596;29;19919;-67
2021/08/26 09:59:11;;;;;;;;;;;;;;;34.48;27.35;94184.13;4850896;29;19919;-67
2021/08/26 10:01:39;;;;;;;;;;;;;;;34.52;27.52;94173.88;4835380;29;20232;-68
2021/08/26 10:04:29;;;;;;;;;;;;;;;34.65;27.24;94171.09;4839586;29;19936;-68
2021/08/26 10:06:56;;;;;;;;;;;;;;;34.70;27.69;94165.84;4845235;29;19936;-63
2021/08/26 10:09:23;;;;;;;;;;;;;;;34.65;27.66;94177.28;4845349;29;20227;-68
2021/08/26 10:11:52;;;;;;;;;;;;;;;34.54;27.71;94172.25;4845233;29;19924;-67
2021/08/26 10:14:19;;;;;;;;;;;;;;;34.70;27.50;94162.38;4846532;29;19920;-69
2021/08/26 10:16:46;;;;;;;;;;;;;;;34.59;27.78;94173.63;4846519;29;19925;-69
2021/08/26 10:19:14;;;;;;;;;;;;;;;34.69;27.27;94167.03;4845065;29;19920;-68
2021/08/26 10:21:41;;;;;;;;;;;;;;;34.73;27.79;94161.47;4845084;29;19920;-68
2021/08/26 10:24:08;;;;;;;;;;;;;;;34.92;27.28;94163.09;4846274;29;20368;-68
2021/08/26 10:26:34;;;;;;;;;;;;;;;34.96;26.73;94162.94;4845150;29;19924;-66
2021/08/26 10:29:01;;;;;;;;;;;;;;;35.00;27.25;94163.56;4844659;29;19924;-69
2021/08/26 10:31:29;;;;;;;;;;;;;;;35.16;27.25;94166.03;4844789;29;20241;-68
2021/08/26 10:34:08;;;;;;;;;;;;;;;35.55;26.65;94164.44;4845248;29;19924;-68
2021/08/26 10:36:55;;;;;;;;;;;;;;;36.58;24.99;94164.69;4827891;29;19936;-67
2021/08/26 10:39:32;;;;;;;;;;;;;;;36.45;25.00;94173.06;4837444;29;19932;-66
2021/08/26 10:42:17;;;;;;;;;;;;;;;37.54;24.25;94171.09;4841592;29;20248;-50
2021/08/26 10:45:03;;;;;;;;;;;;;;;37.85;23.31;94160.56;4841888;29;19947;-57
2021/08/26 10:47:57;;;;;;;;;;;;;;;37.90;23.47;94164.59;4842736;29;19924;-53
2021/08/26 10:50:25;;;;;;;;;;;;;;;37.81;23.25;94162.72;4843242;29;20317;-49
2021/08/26 10:53:03;;;;;;;;;;;;;;;38.05;23.07;94164.66;4842269;29;19928;-50
2021/08/26 10:55:31;;;;;;;;;;;;;;;38.16;23.23;94168.31;4841032;29;19928;-47
2021/08/26 10:58:17;;;;;;;;;;;;;;;38.06;22.70;94161.44;4843673;29;19925;-47
2021/08/26 11:00:51;;;;;;;;;;;;;;;36.81;24.61;94171.44;4827423;29;19925;-47
2021/08/26 11:04:08;;;;;;;;;;;;;;;37.63;23.00;94165.56;4844064;29;19925;-47
2021/08/26 11:06:29;;;;;;;;;;;;;;;38.08;22.63;94150.06;4877560;29;19932;-47
2021/08/26 11:09:16;;;;;;;;;;;;;;;37.71;22.94;94147.63;4881357;29;20312;-49
2021/08/26 11:11:47;;;;;;;;;;;;;;;36.89;23.90;94142.66;4870969;29;19953;-46
2021/08/26 11:14:17;;;;;;;;;;;;;;;36.52;24.65;94140.06;4876374;29;19927;-47
2021/08/26 11:16:45;;;;;;;;;;;;;;;37.35;23.92;94133.03;4880588;29;20486;-47
2021/08/26 11:19:12;;;;;;;;;;;;;;;37.22;24.34;94121.59;4880763;29;19937;-46
2021/08/26 11:21:45;;;;;;;;;;;;;;;37.43;24.04;94124.50;4880178;29;19935;-57
2021/08/26 11:24:12;;;;;;;;;;;;;;;36.93;24.78;94119.47;4887788;29;19930;-62
2021/08/26 11:26:51;;;;;;;;;;;;;;;37.09;24.89;94114.88;4878784;29;20335;-64
2021/08/26 11:29:20;;;;;;;;;;;;;;;36.81;24.69;94114.25;4878920;29;19920;-55
2021/08/26 11:31:53;;;;;;;;;;;;;;;36.84;24.29;94105.91;4874387;29;19930;-57
2021/08/26 11:34:26;;;;;;;;;;;;;;;36.69;24.99;94111.25;4881015;29;19923;-69
2021/08/26 11:36:55;;;;;;;;;;;;;;;36.11;25.87;94112.31;4880849;29;19927;-62
2021/08/26 11:39:22;;;;;;;;;;;;;;;35.97;26.33;94099.38;4881222;29;19928;-58
2021/08/26 11:41:49;;;;;;;;;;;;;;;36.18;25.57;94099.63;4875538;29;19920;-65
2021/08/26 11:44:16;;;;;;;;;;;;;;;35.96;26.00;94097.84;4879417;29;19923;-61
2021/08/26 11:46:43;;;;;;;;;;;;;;;36.30;25.57;94087.78;4880122;29;20224;-64
2021/08/26 11:49:10;;;;;;;;;;;;;;;36.15;25.72;94091.16;4879897;29;19923;-61
2021/08/26 11:51:37;;;;;;;;;;;;;;;36.27;25.30;94088.72;4880232;29;20338;-57
2021/08/26 11:54:19;;;;;;;;;;;;;;;36.22;25.74;94089.34;4880477;29;19994;-55
2021/08/26 11:56:51;;;;;;;;;;;;;;;36.11;25.56;94079.69;4878752;29;19934;-61
2021/08/26 11:59:28;;;;;;;;;;;;;;;36.04;25.74;94062.94;4877389;29;19928;-56
2021/08/26 12:02:14;;;;;;;;;;;;;;;36.00;25.76;94054.94;4879961;29;19924;-57
2021/08/26 12:04:41;;;;;;;;;;;;;;;36.18;26.18;94056.09;4878377;29;19935;-56
2021/08/26 12:07:08;;;;;;;;;;;;;;;36.23;26.26;94033.72;4881037;29;19928;-58
2021/08/26 12:09:36;;;;;;;;;;;;;;;36.46;24.89;94043.94;4880641;29;19927;-61
2021/08/26 12:12:13;;;;;;;;;;;;;;;36.25;25.49;94045.63;4863746;29;19923;-58
2021/08/26 12:14:40;;;;;;;;;;;;;;;36.44;25.19;94032.75;4880218;29;19935;-57
2021/08/26 12:17:13;;;;;;;;;;;;;;;36.12;25.62;94026.78;4879671;29;19931;-61
2021/08/26 12:19:40;;;;;;;;;;;;;;;36.64;25.09;94022.03;4880868;29;20327;-57
2021/08/26 12:22:07;;;;;;;;;;;;;;;36.66;25.08;94014.16;4880399;29;19923;-55
2021/08/26 12:24:34;;;;;;;;;;;;;;;36.90;24.75;94016.16;4881336;29;19923;-60
2021/08/26 12:27:10;;;;;;;;;;;;;;;36.75;24.77;94016.84;4880727;29;19928;-57
2021/08/26 12:29:44;;;;;;;;;;;;;;;36.62;24.65;94008.13;4880648;29;19924;-56
2021/08/26 12:32:26;;;;;;;;;;;;;;;36.90;24.72;94016.91;4880560;29;19926;-56
2021/08/26 12:34:53;;;;;;;;;;;;;;;36.82;24.71;94009.56;4862925;29;19924;-57
2021/08/26 12:37:19;;;;;;;;;;;;;;;37.14;24.27;94006.00;4869268;29;20300;-57
2021/08/26 12:39:58;;;;;;;;;;;;;;;37.34;23.66;93999.97;4862130;29;19924;-56
2021/08/26 12:42:25;;;;;;;;;;;;;;;37.24;24.15;93998.50;4860260;29;20304;-58
2021/08/26 12:44:53;;;;;;;;;;;;;;;37.40;23.79;93989.91;4881444;29;19924;-61
2021/08/26 12:47:26;;;;;;;;;;;;;;;37.14;23.62;93986.94;4881404;29;19928;-59
2021/08/26 12:49:54;;;;;;;;;;;;;;;36.98;24.06;93995.53;4880621;29;19927;-59
2021/08/26 12:52:31;;;;;;;;;;;;;;;36.69;24.04;94010.50;4880962;29;19923;-57
2021/08/26 12:54:58;;;;;;;;;;;;;;;37.16;23.95;94000.06;4880994;29;19920;-60
2021/08/26 12:57:25;;;;;;;;;;;;;;;36.83;24.19;93997.44;4880077;29;19924;-61
2021/08/26 12:59:52;;;;;;;;;;;;;;;37.27;23.03;93992.91;4881156;29;19926;-59
2021/08/26 13:02:19;;;;;;;;;;;;;;;37.16;23.49;93978.28;4880771;29;19923;-64